Time;durP1;ratioP1;P1;durP2;ratioP2;P2;SDS_P1;SDS_P2;PMS_P1;PMS_P2;Temp;Humidity;BMP_temperature;BMP_pressure;BME280_temperature;BME280_humidity;BME280_pressure;Samples;Min_cycle;Max_cycle;Signal;HPM_P1;HPM_P2
2023/12/22 09:05:19;;;;;;;22.57;8.43;;;7.00;99.90;;;;;;5065911;22;20193;-64
2023/12/22 09:07:46;;;;;;;19.17;8.90;;;7.00;99.90;;;;;;5071257;28;20208;-64
2023/12/22 09:10:12;;;;;;;25.07;10.23;;;7.00;99.90;;;;;;5057525;28;20229;-63
2023/12/22 09:12:38;;;;;;;17.87;8.73;;;7.00;99.90;;;;;;5057388;28;20186;-66
2023/12/22 09:15:04;;;;;;;18.50;8.77;;;7.00;99.90;;;;;;5075438;28;20189;-63
2023/12/22 09:17:30;;;;;;;20.50;8.60;;;7.00;99.90;;;;;;5057454;28;20633;-64
2023/12/22 09:19:55;;;;;;;25.77;10.20;;;7.00;99.90;;;;;;5075226;28;20194;-63
2023/12/22 09:22:21;;;;;;;23.87;9.80;;;7.10;99.90;;;;;;5075289;28;20209;-65
2023/12/22 09:24:47;;;;;;;34.03;9.20;;;7.10;99.90;;;;;;5058443;28;20200;-65
2023/12/22 09:27:13;;;;;;;32.77;10.50;;;7.10;99.90;;;;;;5056947;28;20677;-64
2023/12/22 09:29:39;;;;;;;32.80;9.83;;;7.20;99.90;;;;;;5057403;28;20281;-65
2023/12/22 09:32:05;;;;;;;25.17;10.30;;;7.20;99.90;;;;;;5075444;28;20174;-65
2023/12/22 09:34:30;;;;;;;27.10;9.50;;;7.30;99.90;;;;;;5075576;28;20509;-65
2023/12/22 09:36:56;;;;;;;22.67;10.10;;;7.40;99.90;;;;;;5073932;28;20189;-64
2023/12/22 09:39:22;;;;;;;22.93;9.13;;;7.40;99.90;;;;;;5075148;28;20209;-64
2023/12/22 09:41:49;;;;;;;24.53;9.33;;;7.40;99.90;;;;;;5056537;28;20231;-64
2023/12/22 09:44:23;;;;;;;28.27;9.90;;;7.40;99.90;;;;;;5056787;28;20289;-65
2023/12/22 09:46:50;;;;;;;31.80;11.10;;;7.30;99.90;;;;;;5056915;28;20626;-64
2023/12/22 09:49:20;;;;;;;24.83;10.10;;;7.20;99.90;;;;;;5074760;28;20267;-65
2023/12/22 09:51:46;;;;;;;31.03;10.13;;;7.20;99.90;;;;;;5057773;28;20182;-64
2023/12/22 09:54:14;;;;;;;24.50;9.27;;;7.10;99.90;;;;;;5074708;28;20201;-65
2023/12/22 09:56:42;;;;;;;20.03;9.00;;;7.00;99.90;;;;;;5074539;28;20189;-64
2023/12/22 09:59:17;;;;;;;25.83;9.03;;;6.90;99.90;;;;;;5074494;28;20209;-65
2023/12/22 10:01:45;;;;;;;19.60;7.93;;;6.70;99.90;;;;;;5056567;28;20185;-65
2023/12/22 10:04:16;;;;;;;16.57;7.67;;;6.60;99.90;;;;;;5057048;28;20233;-66
2023/12/22 10:06:45;;;;;;;15.90;8.60;;;6.50;99.90;;;;;;5056438;28;20323;-67
2023/12/22 10:09:14;;;;;;;22.67;8.27;;;6.50;99.90;;;;;;5056507;28;20197;-66
2023/12/22 10:11:43;;;;;;;20.90;8.80;;;6.40;99.90;;;;;;5074442;28;20245;-66
2023/12/22 10:14:10;;;;;;;18.67;7.80;;;6.40;99.90;;;;;;5056279;28;20197;-65
2023/12/22 10:16:40;;;;;;;22.87;9.13;;;6.40;99.90;;;;;;5074632;28;20197;-66
2023/12/22 10:19:06;;;;;;;20.43;8.43;;;6.30;99.90;;;;;;5056163;28;20321;-65
2023/12/22 10:21:33;;;;;;;19.27;8.37;;;6.20;99.90;;;;;;5074202;28;20193;-65
2023/12/22 10:23:58;;;;;;;19.57;8.60;;;6.20;99.90;;;;;;5074237;28;20208;-65
2023/12/22 10:26:24;;;;;;;13.53;7.80;;;6.20;99.90;;;;;;5073851;28;20178;-65
2023/12/22 10:28:50;;;;;;;23.10;7.77;;;6.20;99.90;;;;;;5074076;28;20185;-65
2023/12/22 10:31:17;;;;;;;15.47;8.20;;;6.10;99.90;;;;;;5055912;28;20210;-64
2023/12/22 10:33:44;;;;;;;17.60;8.20;;;6.10;99.90;;;;;;5073949;28;20189;-64
2023/12/22 10:36:10;;;;;;;16.67;7.60;;;6.10;99.90;;;;;;5074297;28;20177;-64
2023/12/22 10:38:36;;;;;;;21.10;7.67;;;6.10;99.90;;;;;;5073828;28;20212;-65
2023/12/22 10:41:07;;;;;;;17.57;7.97;;;6.10;99.90;;;;;;5055715;28;20213;-64
2023/12/22 10:43:40;;;;;;;14.23;7.97;;;6.20;99.90;;;;;;5056069;28;20192;-63
2023/12/22 10:46:08;;;;;;;22.70;8.13;;;6.10;99.90;;;;;;5074121;28;20213;-63
2023/12/22 10:48:34;;;;;;;24.87;8.90;;;6.10;99.90;;;;;;5073549;28;20192;-63
2023/12/22 10:51:00;;;;;;;21.93;9.57;;;6.10;99.90;;;;;;5073764;28;20752;-64
2023/12/22 10:53:26;;;;;;;15.73;9.27;;;6.10;99.90;;;;;;5074015;28;20260;-64
2023/12/22 10:55:52;;;;;;;18.23;8.93;;;6.20;99.90;;;;;;5073575;28;20642;-64
2023/12/22 10:58:18;;;;;;;16.97;8.87;;;6.20;99.90;;;;;;5073906;28;20210;-63
2023/12/22 11:00:51;;;;;;;19.80;9.97;;;6.20;99.90;;;;;;5056054;28;20208;-64
2023/12/22 11:03:18;;;;;;;19.67;9.33;;;6.20;99.90;;;;;;5074117;28;20186;-64
2023/12/22 11:05:47;;;;;;;20.93;8.73;;;6.20;99.90;;;;;;5055501;28;20193;-64
2023/12/22 11:08:14;;;;;;;18.13;8.87;;;6.30;99.90;;;;;;5073478;28;20194;-63
2023/12/22 11:10:45;;;;;;;16.07;9.50;;;6.40;99.90;;;;;;5073365;28;20213;-64
2023/12/22 11:13:12;;;;;;;19.70;8.97;;;6.40;99.90;;;;;;5073220;28;20219;-63
2023/12/22 11:15:40;;;;;;;19.47;8.70;;;6.40;99.90;;;;;;5073159;28;20196;-63
2023/12/22 11:18:08;;;;;;;22.10;8.63;;;6.40;99.90;;;;;;5073313;28;20270;-64
2023/12/22 11:20:35;;;;;;;29.47;9.67;;;6.50;99.90;;;;;;5055309;28;20201;-64
2023/12/22 11:23:02;;;;;;;18.47;8.20;;;6.60;99.90;;;;;;5055222;28;20668;-63
2023/12/22 11:25:30;;;;;;;17.57;8.30;;;6.60;99.90;;;;;;5073349;28;20174;-63
2023/12/22 11:27:58;;;;;;;25.83;8.37;;;6.60;99.90;;;;;;5054706;28;20190;-65
2023/12/22 11:30:25;;;;;;;13.77;8.33;;;6.60;99.90;;;;;;5055123;28;20209;-65
2023/12/22 11:32:53;;;;;;;12.13;7.43;;;6.70;99.90;;;;;;5054985;28;20668;-64
2023/12/22 11:35:20;;;;;;;13.10;6.90;;;6.70;99.90;;;;;;5054945;28;20277;-64
2023/12/22 11:37:48;;;;;;;10.10;6.97;;;6.70;99.90;;;;;;5073434;28;20206;-64
2023/12/22 11:40:14;;;;;;;12.67;6.83;;;6.70;99.90;;;;;;5054867;28;20617;-65
2023/12/22 11:42:45;;;;;;;13.30;7.23;;;6.70;99.90;;;;;;5072868;28;20186;-65
2023/12/22 11:45:16;;;;;;;12.37;6.50;;;6.60;99.90;;;;;;5055026;28;20198;-64
2023/12/22 11:47:42;;;;;;;14.17;6.60;;;6.70;99.90;;;;;;5072991;28;20170;-64
2023/12/22 11:50:12;;;;;;;14.53;6.67;;;6.70;99.90;;;;;;5055051;28;20793;-64
2023/12/22 11:52:39;;;;;;;9.70;6.07;;;6.60;99.90;;;;;;5072741;28;20700;-64
2023/12/22 11:55:06;;;;;;;10.00;5.93;;;6.60;99.90;;;;;;5072783;28;20178;-63
2023/12/22 11:57:34;;;;;;;11.10;5.50;;;6.60;99.90;;;;;;5072827;28;20181;-64
2023/12/22 12:00:07;;;;;;;9.50;5.60;;;6.60;99.90;;;;;;5073036;28;20593;-64
2023/12/22 12:02:37;;;;;;;13.63;5.83;;;6.70;99.90;;;;;;5077151;28;20231;-65
2023/12/22 12:05:04;;;;;;;7.27;5.27;;;6.60;99.90;;;;;;5076736;28;20166;-64
2023/12/22 12:08:08;;;;;;;9.17;5.10;;;6.70;99.90;;;;;;5076658;28;20284;-63
2023/12/22 12:10:35;;;;;;;5.57;4.50;;;6.70;99.90;;;;;;5039755;28;20296;-63
2023/12/22 12:13:11;;;;;;;5.10;4.60;;;6.60;99.90;;;;;;5076395;28;20178;-64
2023/12/22 12:15:37;;;;;;;6.53;4.80;;;6.60;99.90;;;;;;5058559;28;20288;-64
2023/12/22 12:18:04;;;;;;;7.30;4.70;;;6.60;99.90;;;;;;5058343;28;20319;-63
2023/12/22 12:20:31;;;;;;;5.43;4.93;;;6.60;99.90;;;;;;5076544;28;20316;-63
2023/12/22 12:22:57;;;;;;;7.90;5.13;;;6.70;99.90;;;;;;5058858;28;20186;-63
2023/12/22 12:25:26;;;;;;;5.10;4.70;;;6.60;99.90;;;;;;5076751;28;20268;-63
2023/12/22 12:28:03;;;;;;;6.47;5.07;;;6.60;99.90;;;;;;5058246;28;20670;-63
2023/12/22 12:30:30;;;;;;;5.30;4.77;;;6.60;99.90;;;;;;5076261;28;20209;-63
2023/12/22 12:33:02;;;;;;;5.87;4.77;;;6.60;99.90;;;;;;5058412;28;20182;-63
2023/12/22 12:35:29;;;;;;;6.60;4.80;;;6.60;99.90;;;;;;5058293;28;20641;-63
2023/12/22 12:37:55;;;;;;;11.47;5.17;;;6.60;99.90;;;;;;5058201;28;20236;-63
2023/12/22 12:40:24;;;;;;;7.23;5.90;;;6.60;99.90;;;;;;5058364;28;20682;-63
2023/12/22 12:42:50;;;;;;;9.30;5.30;;;6.60;99.90;;;;;;5057829;28;20189;-64
2023/12/22 12:45:23;;;;;;;9.03;5.57;;;6.70;99.90;;;;;;5075625;28;20188;-64
2023/12/22 12:47:59;;;;;;;9.03;5.90;;;6.80;99.90;;;;;;5076094;28;20181;-64
2023/12/22 12:50:25;;;;;;;6.87;5.50;;;6.80;99.90;;;;;;5075724;28;20201;-63
2023/12/22 12:52:54;;;;;;;8.37;6.10;;;6.80;99.90;;;;;;5075844;28;20190;-64
2023/12/22 12:55:21;;;;;;;8.70;6.23;;;6.90;99.90;;;;;;5076002;28;20186;-65
2023/12/22 12:57:54;;;;;;;9.33;6.00;;;6.90;99.90;;;;;;5057413;28;20283;-64
2023/12/22 13:00:31;;;;;;;5.93;5.13;;;6.90;99.90;;;;;;5075725;28;20210;-64
2023/12/22 13:03:04;;;;;;;7.13;5.57;;;6.90;99.90;;;;;;5075802;28;20177;-64
2023/12/22 13:05:30;;;;;;;10.17;5.43;;;6.90;99.90;;;;;;5057791;28;20186;-65
2023/12/22 13:08:10;;;;;;;7.30;5.50;;;6.90;99.90;;;;;;5075703;28;20174;-65
2023/12/22 13:10:37;;;;;;;7.67;5.10;;;6.90;99.90;;;;;;5057826;28;20233;-66
2023/12/22 13:13:03;;;;;;;5.03;4.70;;;6.90;99.90;;;;;;5057420;28;20190;-64
2023/12/22 13:15:30;;;;;;;9.47;5.00;;;6.90;99.90;;;;;;5075656;28;20194;-65
2023/12/22 13:17:56;;;;;;;8.63;5.27;;;6.90;99.90;;;;;;5075457;28;20201;-64
2023/12/22 13:20:22;;;;;;;7.57;5.23;;;6.90;99.90;;;;;;5057403;28;20209;-65
2023/12/22 13:22:49;;;;;;;5.77;4.50;;;6.90;99.90;;;;;;5057476;28;20189;-65
2023/12/22 13:25:14;;;;;;;7.27;5.47;;;6.90;99.90;;;;;;5075320;28;20206;-66
2023/12/22 13:27:47;;;;;;;8.00;6.23;;;6.90;99.90;;;;;;5056920;28;20225;-66
2023/12/22 13:30:31;;;;;;;9.53;5.90;;;6.90;99.90;;;;;;5075072;28;20206;-66
2023/12/22 13:32:57;;;;;;;8.23;6.20;;;7.00;99.90;;;;;;5057188;28;20265;-67
2023/12/22 13:35:24;;;;;;;8.30;6.03;;;7.10;99.90;;;;;;5057172;28;20670;-65
2023/12/22 13:37:50;;;;;;;7.30;6.03;;;7.10;99.90;;;;;;5075550;28;20201;-65
2023/12/22 13:40:16;;;;;;;10.30;6.27;;;7.20;99.90;;;;;;5057117;28;20709;-64
2023/12/22 13:42:43;;;;;;;11.17;5.10;;;7.20;99.90;;;;;;5074579;28;20182;-67
2023/12/22 13:45:12;;;;;;;9.83;5.13;;;7.30;99.90;;;;;;5074763;28;20265;-64
2023/12/22 13:47:46;;;;;;;9.07;5.27;;;7.30;99.90;;;;;;5074727;28;20189;-64
2023/12/22 13:50:16;;;;;;;10.70;5.50;;;7.30;99.90;;;;;;5074934;28;20283;-64
2023/12/22 13:52:43;;;;;;;5.50;4.83;;;7.30;99.90;;;;;;5074704;28;20174;-65
2023/12/22 13:55:17;;;;;;;8.27;4.90;;;7.30;99.90;;;;;;5057248;28;20280;-64
2023/12/22 13:57:44;;;;;;;6.13;4.80;;;7.20;99.90;;;;;;5074204;28;20263;-65
2023/12/22 14:00:18;;;;;;;10.77;5.30;;;7.30;99.90;;;;;;5074425;28;20202;-64
2023/12/22 14:02:51;;;;;;;5.93;5.43;;;7.30;99.90;;;;;;5074570;28;20177;-65
2023/12/22 14:05:19;;;;;;;7.80;5.13;;;7.30;99.90;;;;;;5074573;28;20166;-64
2023/12/22 14:07:46;;;;;;;14.77;5.47;;;7.30;99.90;;;;;;5056618;28;20202;-63
2023/12/22 14:10:12;;;;;;;8.37;5.83;;;7.30;99.90;;;;;;5074465;28;20296;-63
2023/12/22 14:12:40;;;;;;;6.63;5.40;;;7.30;99.90;;;;;;5074288;28;20264;-63
2023/12/22 14:15:10;;;;;;;11.70;5.73;;;7.20;99.90;;;;;;5056267;28;20204;-64
2023/12/22 14:17:36;;;;;;;6.77;5.43;;;7.30;99.90;;;;;;5074244;28;20533;-63
2023/12/22 14:20:04;;;;;;;11.33;5.67;;;7.30;99.90;;;;;;5056305;28;20216;-64
2023/12/22 14:22:30;;;;;;;11.63;6.07;;;7.40;99.90;;;;;;5074210;28;20188;-64
2023/12/22 14:24:56;;;;;;;8.87;5.83;;;7.40;99.90;;;;;;5055770;28;20561;-63
2023/12/22 14:27:25;;;;;;;9.03;5.93;;;7.50;99.90;;;;;;5055799;28;20276;-64
2023/12/22 14:29:51;;;;;;;10.40;6.60;;;7.40;99.90;;;;;;5056253;28;20654;-64
2023/12/22 14:32:19;;;;;;;10.53;6.43;;;7.40;99.90;;;;;;5056079;28;20217;-64
2023/12/22 14:34:46;;;;;;;11.37;6.30;;;7.40;99.90;;;;;;5073923;28;20174;-65
2023/12/22 14:37:13;;;;;;;16.50;6.73;;;7.50;99.90;;;;;;5055858;28;20650;-64
2023/12/22 14:39:39;;;;;;;11.87;6.63;;;7.50;99.90;;;;;;5073759;28;20205;-64
2023/12/22 14:42:05;;;;;;;18.70;6.80;;;7.60;99.90;;;;;;5055657;28;20197;-64
2023/12/22 14:44:31;;;;;;;8.27;6.80;;;7.70;99.90;;;;;;5074220;28;20562;-64
2023/12/22 14:46:57;;;;;;;9.07;6.20;;;7.70;99.90;;;;;;5073540;28;20182;-64
2023/12/22 14:49:22;;;;;;;12.00;5.90;;;7.80;99.90;;;;;;5073823;28;20659;-64
2023/12/22 14:51:53;;;;;;;10.27;5.80;;;7.80;99.90;;;;;;5055530;28;20193;-64
2023/12/22 14:54:20;;;;;;;8.87;5.73;;;7.90;99.90;;;;;;5073738;28;20185;-65
2023/12/22 14:56:46;;;;;;;13.50;5.93;;;7.90;99.90;;;;;;5055227;28;20194;-63
2023/12/22 14:59:16;;;;;;;7.30;5.27;;;8.00;99.90;;;;;;5055394;28;20662;-66
2023/12/22 15:01:42;;;;;;;16.47;6.17;;;8.00;99.90;;;;;;5055555;28;20201;-66
2023/12/22 15:04:09;;;;;;;10.23;6.00;;;8.10;99.90;;;;;;5073607;28;20185;-65
2023/12/22 15:06:43;;;;;;;8.03;5.97;;;8.10;99.90;;;;;;5073294;28;20190;-65
2023/12/22 15:09:09;;;;;;;7.57;6.20;;;8.10;99.90;;;;;;5073569;28;20195;-65
2023/12/22 15:11:42;;;;;;;12.37;6.47;;;8.00;99.90;;;;;;5073754;28;20546;-64
2023/12/22 15:14:07;;;;;;;11.57;6.13;;;8.10;99.90;;;;;;5055044;28;20225;-65
2023/12/22 15:16:33;;;;;;;8.00;5.60;;;8.00;99.90;;;;;;5073272;28;20267;-64
2023/12/22 15:18:59;;;;;;;7.40;5.40;;;8.10;99.90;;;;;;5072639;28;20688;-64
2023/12/22 15:21:25;;;;;;;8.43;5.10;;;8.00;99.90;;;;;;5073306;28;20189;-65
2023/12/22 15:23:51;;;;;;;11.83;5.27;;;8.10;99.90;;;;;;5072868;28;20265;-64
2023/12/22 15:26:26;;;;;;;8.00;5.10;;;8.10;99.90;;;;;;5055008;28;20186;-64
2023/12/22 15:28:52;;;;;;;7.73;4.67;;;8.20;99.90;;;;;;5072801;28;20615;-66
2023/12/22 15:31:18;;;;;;;7.03;4.57;;;8.10;99.90;;;;;;5055124;28;20289;-66
2023/12/22 15:33:43;;;;;;;5.17;4.13;;;8.10;99.90;;;;;;5072903;28;20185;-66
2023/12/22 15:36:09;;;;;;;7.00;4.70;;;8.00;99.90;;;;;;5071946;28;20227;-66
2023/12/22 15:38:35;;;;;;;9.83;5.23;;;8.00;99.90;;;;;;5072507;28;20231;-64
2023/12/22 15:41:01;;;;;;;10.53;5.50;;;8.00;99.90;;;;;;5072703;28;20220;-63
2023/12/22 15:43:28;;;;;;;11.20;5.63;;;8.00;99.90;;;;;;5072623;28;20174;-65
2023/12/22 15:45:54;;;;;;;5.93;5.33;;;8.10;99.90;;;;;;5054788;28;20185;-64
2023/12/22 15:48:19;;;;;;;7.82;4.82;;;8.10;99.90;;;;;;5072886;28;20583;-66
2023/12/22 15:50:47;;;;;;;7.10;4.77;;;8.00;99.90;;;;;;5054593;28;20213;-64
2023/12/22 15:53:13;;;;;;;6.07;4.87;;;8.00;99.90;;;;;;5054750;28;20212;-63
2023/12/22 15:55:39;;;;;;;5.67;4.50;;;8.00;99.90;;;;;;5072672;28;20564;-64
2023/12/22 15:58:05;;;;;;;4.50;4.10;;;8.00;99.90;;;;;;5054249;28;20565;-64
2023/12/22 16:00:31;;;;;;;7.50;3.97;;;7.90;99.90;;;;;;5072678;28;20280;-65
2023/12/22 16:02:57;;;;;;;5.20;3.80;;;7.90;99.90;;;;;;5055004;28;20182;-65
2023/12/22 16:05:23;;;;;;;7.63;4.43;;;8.00;99.90;;;;;;5072561;28;20248;-65
2023/12/22 16:07:49;;;;;;;5.97;3.97;;;8.00;99.90;;;;;;5072769;28;20202;-65
2023/12/22 16:10:15;;;;;;;5.23;4.20;;;8.00;99.90;;;;;;5054795;28;20256;-65
2023/12/22 16:12:41;;;;;;;4.77;3.97;;;8.00;99.90;;;;;;5054602;28;20182;-65
2023/12/22 16:15:10;;;;;;;4.80;4.40;;;8.00;99.90;;;;;;5072744;28;20212;-65
2023/12/22 16:17:36;;;;;;;5.23;4.13;;;8.00;99.90;;;;;;5072618;28;20178;-65
2023/12/22 16:20:02;;;;;;;4.67;4.27;;;8.00;99.90;;;;;;5054652;28;20205;-65
2023/12/22 16:22:28;;;;;;;4.50;4.20;;;8.00;99.90;;;;;;5072685;28;20182;-65
2023/12/22 16:24:54;;;;;;;7.87;4.50;;;8.00;99.90;;;;;;5072735;28;20174;-65
2023/12/22 16:27:20;;;;;;;6.20;4.63;;;8.00;99.90;;;;;;5072607;28;20178;-65
2023/12/22 16:29:46;;;;;;;11.60;4.80;;;8.10;99.90;;;;;;5072618;28;20202;-66
2023/12/22 16:32:15;;;;;;;8.93;4.80;;;8.20;99.90;;;;;;5054537;28;20662;-65
2023/12/22 16:34:43;;;;;;;10.33;4.93;;;8.30;99.90;;;;;;5072493;28;20174;-64
2023/12/22 16:37:11;;;;;;;10.70;5.00;;;8.40;99.90;;;;;;5072542;28;20213;-64
2023/12/22 16:39:51;;;;;;;10.40;5.20;;;8.40;99.90;;;;;;5072671;28;20213;-65
2023/12/22 16:42:20;;;;;;;10.80;5.40;;;8.30;99.90;;;;;;5072683;28;20177;-65
2023/12/22 16:44:52;;;;;;;10.17;7.23;;;8.30;99.90;;;;;;5072350;28;20178;-64
2023/12/22 16:47:19;;;;;;;10.07;5.23;;;8.30;99.90;;;;;;5075316;28;20178;-65
2023/12/22 16:49:46;;;;;;;8.83;5.77;;;8.30;99.90;;;;;;5076042;28;20194;-65
2023/12/22 16:52:12;;;;;;;8.57;5.03;;;8.40;99.90;;;;;;5058033;28;20190;-65
2023/12/22 16:54:39;;;;;;;10.63;5.47;;;8.50;99.90;;;;;;5076554;28;20201;-65
2023/12/22 16:57:05;;;;;;;6.07;5.40;;;8.40;99.90;;;;;;5076140;28;20208;-65
2023/12/22 16:59:30;;;;;;;12.87;5.53;;;8.40;99.90;;;;;;5057678;28;20214;-65
2023/12/22 17:01:56;;;;;;;5.73;5.10;;;8.40;99.90;;;;;;5058480;28;20646;-65
2023/12/22 17:04:22;;;;;;;10.63;4.97;;;8.50;99.90;;;;;;5075714;28;20231;-64
2023/12/22 17:06:52;;;;;;;7.67;5.20;;;8.50;99.90;;;;;;5075615;28;20227;-65
2023/12/22 17:09:18;;;;;;;9.30;5.00;;;8.60;99.90;;;;;;5057585;28;20301;-65
2023/12/22 17:11:44;;;;;;;9.73;4.90;;;8.50;99.90;;;;;;5075564;28;20249;-65
2023/12/22 17:14:11;;;;;;;11.33;5.70;;;8.60;99.90;;;;;;5075242;28;20232;-65
2023/12/22 17:16:37;;;;;;;13.07;5.53;;;8.60;99.90;;;;;;5075839;28;20261;-65
2023/12/22 17:19:04;;;;;;;14.37;5.57;;;8.60;99.90;;;;;;5075431;28;20263;-65
2023/12/22 17:21:30;;;;;;;10.57;4.90;;;8.60;99.90;;;;;;5075937;28;20166;-65
2023/12/22 17:23:56;;;;;;;8.52;4.85;;;8.60;99.90;;;;;;5075471;28;20196;-65
2023/12/22 17:26:23;;;;;;;10.70;4.88;;;8.60;99.90;;;;;;5075300;28;20581;-64
2023/12/22 17:28:49;;;;;;;8.98;4.85;;;8.70;99.90;;;;;;5075146;28;20192;-65
2023/12/22 17:31:19;;;;;;;11.77;5.20;;;8.60;99.90;;;;;;5075081;28;20682;-65
2023/12/22 17:33:44;;;;;;;10.57;5.28;;;8.60;99.90;;;;;;5075107;28;20178;-67
2023/12/22 17:36:10;;;;;;;4.72;4.25;;;8.50;99.90;;;;;;5057115;28;20204;-67
2023/12/22 17:38:36;;;;;;;5.67;3.83;;;8.20;99.90;;;;;;5074941;28;20212;-66
2023/12/22 17:41:02;;;;;;;5.87;4.00;;;7.70;99.90;;;;;;5074955;28;20198;-65
2023/12/22 17:43:28;;;;;;;5.67;3.90;;;7.40;99.90;;;;;;5074846;28;20234;-65
2023/12/22 17:45:54;;;;;;;4.03;3.80;;;7.00;99.90;;;;;;5057034;28;20182;-65
2023/12/22 17:48:21;;;;;;;4.87;4.10;;;6.80;99.90;;;;;;5074710;28;20174;-65
2023/12/22 17:50:47;;;;;;;4.97;3.80;;;6.60;99.90;;;;;;5056827;28;20210;-63
2023/12/22 17:53:13;;;;;;;3.93;3.73;;;6.60;99.90;;;;;;5074766;28;20553;-64
2023/12/22 17:55:40;;;;;;;7.97;4.10;;;6.50;99.90;;;;;;5074635;28;20647;-64
2023/12/22 17:58:06;;;;;;;5.23;4.40;;;6.50;99.90;;;;;;5073665;28;20202;-64
2023/12/22 18:00:32;;;;;;;4.57;4.17;;;6.50;99.90;;;;;;5074561;28;20201;-64
2023/12/22 18:02:58;;;;;;;4.97;4.50;;;6.50;99.90;;;;;;5074661;28;20719;-65
2023/12/22 18:05:25;;;;;;;4.47;4.17;;;6.60;99.90;;;;;;5075169;28;20642;-65
2023/12/22 18:07:54;;;;;;;4.40;4.10;;;6.60;99.90;;;;;;5074735;28;20189;-64
2023/12/22 18:10:20;;;;;;;5.57;4.67;;;6.60;99.90;;;;;;5056244;28;20245;-64
2023/12/22 18:12:46;;;;;;;4.70;4.30;;;6.60;99.90;;;;;;5074583;28;20267;-64
2023/12/22 18:15:12;;;;;;;4.63;4.33;;;6.60;99.90;;;;;;5074227;28;20204;-67
2023/12/22 18:17:38;;;;;;;4.60;4.20;;;6.60;99.90;;;;;;5074424;28;20285;-65
2023/12/22 18:20:06;;;;;;;4.40;4.00;;;6.60;99.90;;;;;;5056203;28;20287;-67
2023/12/22 18:22:32;;;;;;;4.60;4.20;;;6.60;99.90;;;;;;5074108;28;20184;-67
2023/12/22 18:24:58;;;;;;;5.00;4.50;;;6.70;99.90;;;;;;5074525;28;20186;-67
2023/12/22 18:27:26;;;;;;;6.23;5.63;;;6.70;99.90;;;;;;5055962;28;20274;-65
2023/12/22 18:29:53;;;;;;;5.87;5.07;;;6.70;99.90;;;;;;5074468;28;20209;-63
2023/12/22 18:32:19;;;;;;;6.57;4.30;;;6.70;99.90;;;;;;5074297;28;20182;-64
2023/12/22 18:34:45;;;;;;;6.93;3.93;;;6.70;99.90;;;;;;5073952;28;20659;-65
2023/12/22 18:37:11;;;;;;;6.20;4.80;;;6.70;99.90;;;;;;5074787;28;20235;-66
2023/12/22 18:39:36;;;;;;;7.23;4.50;;;6.70;99.90;;;;;;5074029;28;20275;-64
2023/12/22 18:42:04;;;;;;;7.63;4.10;;;6.70;99.90;;;;;;5073763;28;20184;-66
2023/12/22 18:44:33;;;;;;;4.50;4.20;;;6.70;99.90;;;;;;5055513;28;20190;-64
2023/12/22 18:46:59;;;;;;;6.80;4.27;;;6.70;99.90;;;;;;5073837;28;20177;-64
2023/12/22 18:49:24;;;;;;;4.97;4.20;;;6.70;99.90;;;;;;5055637;28;20213;-64
2023/12/22 18:51:50;;;;;;;5.10;4.17;;;6.70;99.90;;;;;;5074040;28;20263;-63
2023/12/22 18:54:16;;;;;;;5.10;4.27;;;6.70;99.90;;;;;;5073656;28;20182;-62
2023/12/22 18:56:42;;;;;;;4.63;4.33;;;6.70;99.90;;;;;;5055826;28;20186;-65
2023/12/22 18:59:08;;;;;;;5.00;4.40;;;6.80;99.90;;;;;;5073061;28;20724;-64
2023/12/22 19:01:34;;;;;;;4.83;4.00;;;6.80;99.90;;;;;;5073458;28;20241;-64
2023/12/22 19:04:00;;;;;;;4.70;4.30;;;6.80;99.90;;;;;;5073420;28;20239;-65
2023/12/22 19:06:26;;;;;;;7.80;4.77;;;6.80;99.90;;;;;;5055237;28;20193;-64
2023/12/22 19:08:52;;;;;;;8.17;4.90;;;6.70;99.90;;;;;;5073416;28;20202;-65
2023/12/22 19:11:17;;;;;;;6.80;4.60;;;6.70;99.90;;;;;;5073253;28;20236;-64
2023/12/22 19:13:43;;;;;;;4.93;4.63;;;6.70;99.90;;;;;;5054871;28;20243;-63
2023/12/22 19:16:09;;;;;;;7.83;4.50;;;6.70;99.90;;;;;;5055244;28;20213;-65
2023/12/22 19:18:35;;;;;;;4.70;4.30;;;6.70;99.90;;;;;;5073112;28;20209;-64
2023/12/22 19:21:01;;;;;;;6.60;5.33;;;6.70;99.90;;;;;;5055131;28;20202;-64
2023/12/22 19:23:27;;;;;;;5.27;4.60;;;6.70;99.90;;;;;;5073567;28;20251;-64
2023/12/22 19:25:54;;;;;;;7.47;4.93;;;6.70;99.90;;;;;;5073596;28;20162;-65
2023/12/22 19:28:21;;;;;;;9.10;5.80;;;6.70;99.90;;;;;;5072949;28;20181;-65
2023/12/22 19:30:47;;;;;;;5.50;4.90;;;6.70;99.90;;;;;;5073013;28;20197;-65
2023/12/22 19:33:13;;;;;;;8.93;5.40;;;6.70;99.90;;;;;;5073461;28;20170;-64
2023/12/22 19:35:39;;;;;;;8.03;5.13;;;6.70;99.90;;;;;;5073090;28;20173;-64
2023/12/22 19:38:08;;;;;;;7.13;5.10;;;6.70;99.90;;;;;;5072966;28;20247;-65
2023/12/22 19:40:34;;;;;;;5.97;4.63;;;6.70;99.90;;;;;;5072936;28;20217;-64
2023/12/22 19:43:00;;;;;;;8.47;5.33;;;6.70;99.90;;;;;;5073008;28;20178;-64
2023/12/22 19:45:25;;;;;;;8.07;5.00;;;6.70;99.90;;;;;;5072846;28;20177;-64
2023/12/22 19:47:51;;;;;;;5.97;4.73;;;6.70;99.90;;;;;;5073046;28;20162;-65
2023/12/22 19:50:17;;;;;;;12.63;5.30;;;6.70;99.90;;;;;;5073240;28;20268;-65
2023/12/22 19:52:43;;;;;;;6.13;4.97;;;6.70;99.90;;;;;;5073279;28;20181;-65
2023/12/22 19:55:09;;;;;;;9.93;5.77;;;6.70;99.90;;;;;;5072885;28;20281;-64
2023/12/22 19:57:35;;;;;;;8.80;6.40;;;6.70;99.90;;;;;;5073459;28;20170;-64
2023/12/22 20:00:01;;;;;;;7.37;5.57;;;6.60;99.90;;;;;;5072646;28;20263;-64
2023/12/22 20:02:27;;;;;;;7.67;5.53;;;6.70;99.90;;;;;;5054739;28;20239;-65
2023/12/22 20:04:53;;;;;;;6.40;5.17;;;6.60;99.90;;;;;;5073012;28;20182;-64
2023/12/22 20:07:19;;;;;;;9.67;4.50;;;6.70;99.90;;;;;;5072803;28;20626;-66
2023/12/22 20:09:45;;;;;;;4.90;4.53;;;6.70;99.90;;;;;;5054727;28;20222;-66
2023/12/22 20:12:12;;;;;;;9.90;4.87;;;6.70;99.90;;;;;;5054581;28;20196;-65
2023/12/22 20:14:38;;;;;;;4.70;4.30;;;6.70;99.90;;;;;;5072412;28;20185;-65
2023/12/22 20:17:05;;;;;;;7.77;4.77;;;6.70;99.90;;;;;;5054841;28;20186;-65
2023/12/22 20:19:32;;;;;;;4.80;4.40;;;6.70;99.90;;;;;;5054605;28;20245;-66
2023/12/22 20:21:58;;;;;;;8.37;5.10;;;6.70;99.90;;;;;;5074653;28;20678;-66
2023/12/22 20:24:24;;;;;;;5.47;4.40;;;6.70;99.90;;;;;;5058672;28;20654;-65
2023/12/22 20:26:50;;;;;;;7.33;4.83;;;6.70;99.90;;;;;;5058674;28;20182;-66
2023/12/22 20:29:17;;;;;;;5.77;5.00;;;6.70;99.90;;;;;;5076254;28;20252;-65
2023/12/22 20:31:43;;;;;;;8.17;5.07;;;6.60;99.90;;;;;;5076746;28;20173;-65
2023/12/22 20:34:09;;;;;;;8.00;4.93;;;6.60;99.90;;;;;;5077526;28;20252;-67
2023/12/22 20:36:35;;;;;;;10.33;5.53;;;6.50;99.90;;;;;;5076907;28;20230;-67
2023/12/22 20:39:00;;;;;;;10.50;5.70;;;6.50;99.90;;;;;;5076866;28;20224;-65
2023/12/22 20:41:26;;;;;;;9.23;4.60;;;6.50;99.90;;;;;;5077028;28;20528;-66
2023/12/22 20:43:52;;;;;;;5.50;5.00;;;6.40;99.90;;;;;;5076232;28;20208;-66
2023/12/22 20:46:18;;;;;;;11.00;5.73;;;6.40;99.90;;;;;;5058350;28;20174;-66
2023/12/22 20:48:44;;;;;;;6.87;5.43;;;6.40;99.90;;;;;;5075945;28;20243;-66
2023/12/22 20:51:10;;;;;;;6.37;4.90;;;6.40;99.90;;;;;;5057995;28;20202;-65
2023/12/22 20:53:37;;;;;;;7.43;5.00;;;6.30;99.90;;;;;;5075906;28;20327;-65
2023/12/22 20:56:03;;;;;;;6.07;4.90;;;6.40;99.90;;;;;;5075959;28;20257;-65
2023/12/22 20:58:29;;;;;;;8.30;4.70;;;6.40;99.90;;;;;;5075960;28;20225;-66
2023/12/22 21:00:56;;;;;;;9.37;4.97;;;6.40;99.90;;;;;;5057798;28;20274;-65
2023/12/22 21:03:22;;;;;;;9.83;5.40;;;6.40;99.90;;;;;;5076058;28;20188;-65
2023/12/22 21:05:49;;;;;;;11.60;5.53;;;6.30;99.90;;;;;;5075734;28;20193;-65
2023/12/22 21:08:14;;;;;;;12.17;5.70;;;6.30;99.90;;;;;;5075991;28;20165;-65
2023/12/22 21:10:43;;;;;;;8.37;5.47;;;6.30;99.90;;;;;;5075982;28;20200;-64
2023/12/22 21:13:09;;;;;;;6.17;5.63;;;6.20;99.90;;;;;;5057638;28;20193;-65
2023/12/22 21:15:35;;;;;;;5.63;5.10;;;6.20;99.90;;;;;;5075527;28;20205;-66
2023/12/22 21:18:00;;;;;;;12.83;5.20;;;6.20;99.90;;;;;;5075384;28;20233;-66
2023/12/22 21:20:26;;;;;;;7.13;5.70;;;6.20;99.90;;;;;;5076158;28;20217;-66
2023/12/22 21:22:52;;;;;;;9.67;5.60;;;6.10;99.90;;;;;;5076037;28;20189;-66
2023/12/22 21:25:19;;;;;;;10.17;5.37;;;6.10;99.90;;;;;;5075907;28;20181;-65
2023/12/22 21:27:45;;;;;;;6.97;5.20;;;6.10;99.90;;;;;;5076250;28;20623;-66
2023/12/22 21:30:12;;;;;;;9.27;5.37;;;6.10;99.90;;;;;;5075438;28;20228;-66
2023/12/22 21:32:38;;;;;;;8.30;5.20;;;6.00;99.90;;;;;;5075469;28;20253;-66
2023/12/22 21:35:05;;;;;;;6.33;5.07;;;6.00;99.90;;;;;;5057383;28;20224;-65
2023/12/22 21:37:31;;;;;;;10.43;4.97;;;6.00;99.90;;;;;;5075238;28;20513;-65
2023/12/22 21:39:56;;;;;;;9.90;5.20;;;6.00;99.90;;;;;;5075103;28;20209;-65
2023/12/22 21:42:24;;;;;;;6.53;4.67;;;6.00;99.90;;;;;;5075117;28;20311;-66
2023/12/22 21:44:49;;;;;;;7.90;5.07;;;6.00;99.90;;;;;;5056910;28;20185;-66
2023/12/22 21:47:15;;;;;;;13.30;5.33;;;5.90;99.90;;;;;;5075109;28;20673;-66
2023/12/22 21:49:41;;;;;;;11.00;5.43;;;6.00;99.90;;;;;;5075008;28;20219;-65
2023/12/22 21:52:07;;;;;;;9.17;5.10;;;6.00;99.90;;;;;;5057004;28;20185;-65
2023/12/22 21:54:33;;;;;;;8.70;5.07;;;6.00;99.90;;;;;;5075082;28;20200;-65
2023/12/22 21:56:59;;;;;;;8.73;4.80;;;6.00;99.90;;;;;;5075096;28;20212;-66